Time;durP1;ratioP1;P1;durP2;ratioP2;P2;SDS_P1;SDS_P2;PMS_P1;PMS_P2;Temp;Humidity;BMP_temperature;BMP_pressure;BME280_temperature;BME280_humidity;BME280_pressure;Samples;Min_cycle;Max_cycle;Signal;HPM_P1;HPM_P2
2024/01/06 00:01:42;;;;;;;10.95;3.85;;;2.80;99.90;;;;;;478406;248;27419;-66
2024/01/06 00:03:44;;;;;;;7.70;3.35;;;2.80;99.90;;;;;;478418;248;27505;-65
2024/01/06 00:05:45;;;;;;;7.37;3.55;;;2.80;99.90;;;;;;478376;248;27502;-67
2024/01/06 00:07:46;;;;;;;5.18;3.35;;;2.90;99.90;;;;;;478338;248;27483;-66
2024/01/06 00:09:47;;;;;;;10.07;3.20;;;2.80;99.90;;;;;;478404;248;27419;-65
2024/01/06 00:11:49;;;;;;;5.05;3.30;;;2.80;99.90;;;;;;478434;248;27411;-66
2024/01/06 00:13:50;;;;;;;4.95;3.05;;;2.80;99.90;;;;;;478412;247;27426;-65
2024/01/06 00:15:51;;;;;;;5.50;3.85;;;2.80;99.90;;;;;;478448;248;27878;-66
2024/01/06 00:17:53;;;;;;;5.93;3.20;;;2.70;99.90;;;;;;478432;248;27955;-65
2024/01/06 00:19:54;;;;;;;5.32;3.10;;;2.80;99.90;;;;;;478441;247;28957;-66
2024/01/06 00:21:55;;;;;;;4.60;3.15;;;2.70;99.90;;;;;;478417;248;27936;-65
2024/01/06 00:23:56;;;;;;;8.05;3.20;;;2.80;99.90;;;;;;478409;248;27523;-66
2024/01/06 00:25:58;;;;;;;7.90;3.10;;;2.80;99.90;;;;;;478442;248;27498;-67
2024/01/06 00:27:59;;;;;;;3.17;2.90;;;2.80;99.90;;;;;;478439;248;27467;-66
2024/01/06 00:30:00;;;;;;;9.05;4.15;;;2.90;99.90;;;;;;478445;248;27478;-65
2024/01/06 00:32:01;;;;;;;7.45;4.22;;;3.00;99.90;;;;;;478401;248;27542;-66
2024/01/06 00:34:03;;;;;;;9.77;3.70;;;3.00;99.90;;;;;;478420;247;27407;-66
2024/01/06 00:36:04;;;;;;;6.75;4.00;;;3.00;99.90;;;;;;478430;248;27517;-66
2024/01/06 00:38:05;;;;;;;7.18;3.80;;;3.10;99.90;;;;;;478438;248;27442;-65
2024/01/06 00:40:06;;;;;;;5.72;3.65;;;3.10;99.90;;;;;;478472;248;27431;-65
2024/01/06 00:42:08;;;;;;;3.87;3.35;;;3.20;99.90;;;;;;478435;248;27926;-66
2024/01/06 00:44:09;;;;;;;6.90;3.45;;;3.20;99.90;;;;;;478416;248;27883;-65
2024/01/06 00:46:10;;;;;;;8.07;3.65;;;3.30;99.90;;;;;;478416;248;27882;-66
2024/01/06 00:48:11;;;;;;;8.13;3.78;;;3.30;99.90;;;;;;478427;248;27862;-65
2024/01/06 00:50:13;;;;;;;8.02;3.62;;;3.30;99.90;;;;;;478436;248;27414;-65
2024/01/06 00:52:14;;;;;;;11.05;3.75;;;3.30;99.90;;;;;;478426;248;27497;-67
2024/01/06 00:54:15;;;;;;;6.90;3.70;;;3.40;99.90;;;;;;478418;248;27534;-65
2024/01/06 00:56:16;;;;;;;7.00;3.50;;;3.40;99.90;;;;;;478434;248;27431;-66
2024/01/06 00:58:18;;;;;;;11.32;4.15;;;3.30;99.90;;;;;;478424;247;27427;-66
2024/01/06 01:00:19;;;;;;;7.68;4.20;;;3.30;99.90;;;;;;478434;248;27411;-66
2024/01/06 01:02:20;;;;;;;4.68;3.42;;;3.40;99.90;;;;;;478434;248;27415;-66
2024/01/06 01:04:21;;;;;;;10.18;4.25;;;3.40;99.90;;;;;;478408;248;27423;-65
2024/01/06 01:06:23;;;;;;;5.15;3.30;;;3.50;99.90;;;;;;478429;248;27426;-66
2024/01/06 01:08:24;;;;;;;12.82;4.70;;;3.50;99.90;;;;;;478429;248;27969;-67
2024/01/06 01:10:25;;;;;;;5.97;3.90;;;3.50;99.90;;;;;;478441;248;27910;-66
2024/01/06 01:12:26;;;;;;;8.48;3.50;;;3.50;99.90;;;;;;478411;248;27889;-65
2024/01/06 01:14:28;;;;;;;7.70;3.62;;;3.50;99.90;;;;;;478378;248;27507;-65
2024/01/06 01:16:29;;;;;;;9.32;3.85;;;3.50;99.90;;;;;;478291;248;27494;-65
2024/01/06 01:18:30;;;;;;;12.55;4.47;;;3.50;99.90;;;;;;478389;248;27429;-67
2024/01/06 01:20:31;;;;;;;8.57;3.55;;;3.60;99.90;;;;;;478412;248;27427;-66
2024/01/06 01:22:33;;;;;;;9.40;4.22;;;3.60;99.90;;;;;;478425;248;27422;-66
2024/01/06 01:24:34;;;;;;;5.32;3.70;;;3.60;99.90;;;;;;478402;248;27427;-65
2024/01/06 01:26:35;;;;;;;10.63;4.78;;;3.60;99.90;;;;;;478443;248;27490;-65
2024/01/06 01:28:36;;;;;;;11.85;4.20;;;3.60;99.90;;;;;;478406;248;27497;-65
2024/01/06 01:30:38;;;;;;;10.63;3.85;;;3.60;99.90;;;;;;478422;248;27486;-65
2024/01/06 01:32:39;;;;;;;7.93;4.28;;;3.60;99.90;;;;;;478433;247;27882;-66
2024/01/06 01:34:40;;;;;;;7.05;3.97;;;3.60;99.90;;;;;;478390;248;28053;-67
2024/01/06 01:36:41;;;;;;;6.65;4.22;;;3.60;99.90;;;;;;478431;248;27957;-65
2024/01/06 01:38:43;;;;;;;8.05;4.40;;;3.60;99.90;;;;;;478438;248;27498;-66
2024/01/06 01:40:44;;;;;;;8.32;4.53;;;3.60;99.90;;;;;;478429;248;27383;-65
2024/01/06 01:42:45;;;;;;;7.07;4.10;;;3.60;99.90;;;;;;478423;248;27417;-66
2024/01/06 01:44:46;;;;;;;8.18;4.10;;;3.60;99.90;;;;;;478411;248;27509;-67
2024/01/06 01:46:48;;;;;;;9.52;4.20;;;3.60;99.90;;;;;;478427;248;27427;-65
2024/01/06 01:48:49;;;;;;;6.60;4.37;;;3.60;99.90;;;;;;478404;248;27430;-66
2024/01/06 01:50:50;;;;;;;12.10;4.55;;;3.70;99.90;;;;;;478427;248;27502;-65
2024/01/06 01:52:51;;;;;;;11.82;5.05;;;3.60;99.90;;;;;;478449;248;27423;-65
2024/01/06 01:54:53;;;;;;;8.93;5.20;;;3.70;99.90;;;;;;478403;248;27498;-66
2024/01/06 01:56:54;;;;;;;9.60;5.15;;;3.60;99.90;;;;;;478448;248;27895;-66
2024/01/06 01:58:55;;;;;;;6.95;4.25;;;3.60;99.90;;;;;;478436;248;27935;-66
2024/01/06 02:00:56;;;;;;;7.37;5.15;;;3.60;99.90;;;;;;478461;248;28209;-66
2024/01/06 02:02:58;;;;;;;6.68;4.50;;;3.60;99.90;;;;;;478434;248;27411;-65
2024/01/06 02:04:59;;;;;;;6.60;4.47;;;3.60;99.90;;;;;;478384;248;27418;-66
2024/01/06 02:07:00;;;;;;;7.25;5.05;;;3.60;99.90;;;;;;478434;248;27411;-65
2024/01/06 02:09:01;;;;;;;8.60;4.85;;;3.60;99.90;;;;;;478432;248;27514;-66
2024/01/06 02:11:03;;;;;;;9.25;4.85;;;3.60;99.90;;;;;;478448;248;27510;-66
2024/01/06 02:13:04;;;;;;;6.12;4.20;;;3.60;99.90;;;;;;478452;248;27431;-65
2024/01/06 02:15:05;;;;;;;11.18;5.07;;;3.60;99.90;;;;;;478440;248;27446;-66
2024/01/06 02:17:06;;;;;;;10.40;5.47;;;3.60;99.90;;;;;;478453;248;27450;-65
2024/01/06 02:19:08;;;;;;;11.07;4.35;;;3.60;99.90;;;;;;478468;248;27889;-65
2024/01/06 02:21:09;;;;;;;9.55;4.80;;;3.60;99.90;;;;;;478462;248;27914;-67
2024/01/06 02:23:10;;;;;;;6.75;4.15;;;3.70;99.90;;;;;;478463;248;27490;-65
2024/01/06 02:25:12;;;;;;;8.07;4.32;;;3.70;99.90;;;;;;478423;248;27423;-66
2024/01/06 02:27:13;;;;;;;7.68;4.40;;;3.70;99.90;;;;;;478441;248;27407;-65
2024/01/06 02:29:14;;;;;;;10.65;4.53;;;3.80;99.90;;;;;;478453;248;27411;-65
2024/01/06 02:31:15;;;;;;;6.82;4.22;;;3.70;99.90;;;;;;478455;247;27431;-66
2024/01/06 02:33:19;;;;;;;5.95;4.47;;;3.70;99.90;;;;;;478458;248;27518;-65
2024/01/06 02:35:18;;;;;;;7.57;5.25;;;3.70;99.90;;;;;;478326;248;27415;-66
2024/01/06 02:37:19;;;;;;;6.00;3.60;;;3.60;99.90;;;;;;478453;248;27433;-65
2024/01/06 02:39:20;;;;;;;5.78;4.85;;;3.70;99.90;;;;;;478461;248;27863;-66
2024/01/06 02:41:21;;;;;;;5.87;4.30;;;3.70;99.90;;;;;;478437;247;27894;-66
2024/01/06 02:43:23;;;;;;;6.90;4.80;;;3.70;99.90;;;;;;478454;248;27925;-65
2024/01/06 02:45:24;;;;;;;6.97;3.78;;;3.70;99.90;;;;;;478425;248;27507;-65
2024/01/06 02:47:25;;;;;;;10.48;4.40;;;3.70;99.90;;;;;;478450;248;27431;-67
2024/01/06 02:49:27;;;;;;;7.05;4.45;;;3.70;99.90;;;;;;478451;248;27411;-65
2024/01/06 02:51:28;;;;;;;7.72;4.15;;;3.80;99.90;;;;;;478456;248;27418;-66
2024/01/06 02:53:29;;;;;;;9.32;4.32;;;3.70;99.90;;;;;;478451;248;27490;-65
2024/01/06 02:55:30;;;;;;;6.40;3.70;;;3.70;99.90;;;;;;478422;248;27488;-66
2024/01/06 02:57:31;;;;;;;8.52;4.20;;;3.70;99.90;;;;;;478471;248;27431;-66
2024/01/06 02:59:34;;;;;;;6.30;3.72;;;3.70;99.90;;;;;;478452;248;27905;-65
2024/01/06 03:01:34;;;;;;;3.58;3.25;;;3.60;99.90;;;;;;478383;248;28035;-66
2024/01/06 03:03:35;;;;;;;5.12;4.22;;;3.60;99.90;;;;;;478458;248;28954;-66
2024/01/06 03:05:36;;;;;;;11.52;4.57;;;3.60;99.90;;;;;;478418;248;27434;-66
2024/01/06 03:07:38;;;;;;;6.07;4.03;;;3.60;99.90;;;;;;478451;248;27411;-65
2024/01/06 03:09:39;;;;;;;6.43;4.05;;;3.60;99.90;;;;;;478454;248;27490;-65
2024/01/06 03:11:40;;;;;;;6.72;4.28;;;3.60;99.90;;;;;;478448;248;27419;-65
2024/01/06 03:13:41;;;;;;;9.98;4.25;;;3.60;99.90;;;;;;478409;247;27414;-65
2024/01/06 03:15:43;;;;;;;7.15;4.03;;;3.60;99.90;;;;;;478460;247;27419;-65
2024/01/06 03:17:44;;;;;;;7.75;3.80;;;3.60;99.90;;;;;;478446;248;27418;-66
2024/01/06 03:19:45;;;;;;;5.87;3.80;;;3.70;99.90;;;;;;478451;248;27506;-65
2024/01/06 03:21:46;;;;;;;6.78;3.90;;;3.70;99.90;;;;;;478446;248;27883;-66
2024/01/06 03:23:48;;;;;;;7.03;4.28;;;3.80;99.90;;;;;;478406;247;27887;-68
2024/01/06 03:25:49;;;;;;;6.05;3.62;;;3.80;99.90;;;;;;478460;248;27990;-66
2024/01/06 03:27:50;;;;;;;6.97;4.25;;;3.80;99.90;;;;;;478455;248;27407;-65
2024/01/06 03:29:51;;;;;;;7.45;4.20;;;3.80;99.90;;;;;;478440;248;27458;-66
2024/01/06 03:31:53;;;;;;;6.25;4.10;;;3.80;99.90;;;;;;478439;248;27415;-66
2024/01/06 03:33:55;;;;;;;6.72;4.60;;;3.80;99.90;;;;;;478426;248;27433;-67
2024/01/06 03:35:55;;;;;;;9.13;3.87;;;3.80;99.90;;;;;;478392;246;27431;-65
2024/01/06 03:37:56;;;;;;;4.75;3.47;;;3.80;99.90;;;;;;478442;248;27505;-65
2024/01/06 03:39:58;;;;;;;5.93;3.72;;;3.80;99.90;;;;;;478451;248;27415;-66
2024/01/06 03:41:59;;;;;;;6.47;4.70;;;3.90;99.90;;;;;;478457;248;27415;-65
2024/01/06 03:44:00;;;;;;;6.70;4.90;;;3.90;99.90;;;;;;478308;248;27502;-65
2024/01/06 03:46:02;;;;;;;11.20;6.10;;;3.90;99.90;;;;;;478439;248;27868;-65
2024/01/06 03:48:03;;;;;;;10.18;5.12;;;3.90;99.90;;;;;;478454;248;27945;-65
2024/01/06 03:50:04;;;;;;;8.07;4.93;;;3.80;99.90;;;;;;478442;248;27415;-66
2024/01/06 03:52:05;;;;;;;8.50;4.43;;;3.90;99.90;;;;;;478447;248;27430;-66
2024/01/06 03:54:07;;;;;;;9.48;4.78;;;3.90;99.90;;;;;;478414;248;27427;-65
2024/01/06 03:56:08;;;;;;;8.85;4.75;;;3.90;99.90;;;;;;478440;248;27410;-66
2024/01/06 03:58:09;;;;;;;6.10;4.75;;;3.90;99.90;;;;;;478451;248;27411;-65
2024/01/06 04:00:10;;;;;;;9.57;4.60;;;3.90;99.90;;;;;;478454;248;27431;-68
2024/01/06 04:02:12;;;;;;;5.82;4.62;;;3.80;99.90;;;;;;478442;248;27434;-66
2024/01/06 04:04:13;;;;;;;9.95;5.85;;;3.90;99.90;;;;;;478419;248;27431;-66
2024/01/06 04:06:14;;;;;;;9.60;4.90;;;3.80;99.90;;;;;;478341;248;28266;-65
2024/01/06 04:08:15;;;;;;;6.22;4.50;;;3.90;99.90;;;;;;478442;247;27886;-65
2024/01/06 04:10:17;;;;;;;8.45;4.78;;;3.90;99.90;;;;;;478439;248;27879;-66
2024/01/06 04:12:18;;;;;;;6.37;4.70;;;3.90;99.90;;;;;;478449;248;27407;-66
2024/01/06 04:14:19;;;;;;;8.27;5.37;;;3.90;99.90;;;;;;478429;248;27423;-65
2024/01/06 04:16:20;;;;;;;13.32;5.80;;;3.90;99.90;;;;;;478445;248;27459;-65
2024/01/06 04:18:22;;;;;;;8.70;5.47;;;3.80;99.90;;;;;;478288;248;27418;-66
2024/01/06 04:20:23;;;;;;;5.75;4.85;;;3.80;99.90;;;;;;478449;248;27419;-66
2024/01/06 04:22:24;;;;;;;8.65;4.97;;;3.90;99.90;;;;;;478445;248;27422;-66
2024/01/06 04:24:25;;;;;;;12.37;5.95;;;3.80;99.90;;;;;;478415;248;27522;-66
2024/01/06 04:26:27;;;;;;;7.65;5.00;;;3.80;99.90;;;;;;478455;248;27938;-66
2024/01/06 04:28:28;;;;;;;7.82;5.10;;;3.80;99.90;;;;;;478439;248;27859;-65
2024/01/06 04:30:29;;;;;;;8.02;5.37;;;3.90;99.90;;;;;;478454;248;27871;-66
2024/01/06 04:32:30;;;;;;;8.57;6.00;;;3.90;99.90;;;;;;478461;248;27959;-65
2024/01/06 04:34:32;;;;;;;7.60;5.00;;;3.80;99.90;;;;;;478409;248;27415;-66
2024/01/06 04:36:33;;;;;;;7.35;4.95;;;3.90;99.90;;;;;;478451;248;27415;-67
2024/01/06 04:38:34;;;;;;;11.70;6.82;;;3.90;99.90;;;;;;478443;248;27435;-65
2024/01/06 04:40:35;;;;;;;5.53;4.85;;;3.80;99.90;;;;;;478461;248;27530;-66
2024/01/06 04:42:37;;;;;;;8.80;5.60;;;3.90;99.90;;;;;;478426;248;27510;-65
2024/01/06 04:44:38;;;;;;;8.85;5.18;;;3.90;99.90;;;;;;478415;248;27419;-65
2024/01/06 04:46:39;;;;;;;11.07;4.97;;;3.90;99.90;;;;;;478462;248;27501;-66
2024/01/06 04:48:40;;;;;;;5.53;4.82;;;3.90;99.90;;;;;;478444;248;27955;-66
2024/01/06 04:50:42;;;;;;;8.15;5.40;;;4.00;99.90;;;;;;478442;248;27954;-66
2024/01/06 04:52:43;;;;;;;7.00;5.68;;;4.00;99.90;;;;;;478440;248;27967;-67
2024/01/06 04:54:44;;;;;;;5.65;5.00;;;4.00;99.90;;;;;;478414;248;27498;-66
2024/01/06 04:56:45;;;;;;;10.57;5.55;;;3.90;99.90;;;;;;478436;248;27434;-65
2024/01/06 04:58:47;;;;;;;10.77;5.45;;;4.00;99.90;;;;;;478453;248;27530;-65
2024/01/06 05:00:49;;;;;;;12.77;6.20;;;3.90;99.90;;;;;;478440;247;27415;-65
2024/01/06 05:02:49;;;;;;;11.38;5.50;;;4.00;99.90;;;;;;478378;248;27461;-67
2024/01/06 05:04:50;;;;;;;10.70;6.30;;;3.90;99.90;;;;;;478423;248;27402;-66
2024/01/06 05:06:52;;;;;;;9.15;6.03;;;3.90;99.90;;;;;;478446;248;27931;-66
2024/01/06 05:08:53;;;;;;;6.20;5.53;;;3.90;99.90;;;;;;478430;248;27966;-65
2024/01/06 05:10:54;;;;;;;7.50;5.40;;;3.90;99.90;;;;;;478420;248;27483;-66
2024/01/06 05:12:55;;;;;;;6.70;5.53;;;4.00;99.90;;;;;;478444;248;27494;-67
2024/01/06 05:14:57;;;;;;;8.07;5.75;;;4.00;99.90;;;;;;478409;248;27446;-66
2024/01/06 05:16:58;;;;;;;10.30;5.93;;;3.90;99.90;;;;;;478443;248;27419;-66
2024/01/06 05:18:59;;;;;;;9.20;5.65;;;4.00;99.90;;;;;;478436;247;27427;-66
2024/01/06 05:21:00;;;;;;;10.48;5.65;;;4.00;99.90;;;;;;478441;248;27431;-65
2024/01/06 05:23:02;;;;;;;11.93;5.82;;;4.00;99.90;;;;;;478439;248;27603;-66
2024/01/06 05:25:03;;;;;;;10.32;6.30;;;4.00;99.90;;;;;;478414;248;27988;-66
2024/01/06 05:27:04;;;;;;;8.77;5.53;;;3.90;99.90;;;;;;478448;248;27906;-66
2024/01/06 05:29:05;;;;;;;10.23;5.25;;;4.00;99.90;;;;;;478446;247;27892;-67
2024/01/06 05:31:07;;;;;;;9.30;5.70;;;4.00;99.90;;;;;;478412;248;27431;-66
2024/01/06 05:33:08;;;;;;;6.65;5.68;;;3.90;99.90;;;;;;478437;248;27510;-66
2024/01/06 05:35:09;;;;;;;14.93;6.53;;;3.90;99.90;;;;;;478412;247;27415;-66
2024/01/06 05:37:10;;;;;;;15.43;6.82;;;4.00;99.90;;;;;;478428;248;27431;-66
2024/01/06 05:39:12;;;;;;;6.90;5.70;;;4.00;99.90;;;;;;478450;248;27451;-67
2024/01/06 05:41:13;;;;;;;10.35;6.28;;;4.00;99.90;;;;;;478432;248;27423;-66
2024/01/06 05:43:14;;;;;;;12.88;6.15;;;3.90;99.90;;;;;;478435;248;27868;-66
2024/01/06 05:45:16;;;;;;;11.93;6.32;;;4.00;99.90;;;;;;478434;248;28254;-65
2024/01/06 05:47:17;;;;;;;11.55;7.05;;;3.90;99.90;;;;;;478466;248;27415;-66
2024/01/06 05:49:18;;;;;;;10.68;6.05;;;4.00;99.90;;;;;;478468;247;27503;-66
2024/01/06 05:51:19;;;;;;;8.85;6.55;;;4.00;99.90;;;;;;478453;248;27461;-66
2024/01/06 05:53:21;;;;;;;8.60;5.95;;;3.90;99.90;;;;;;478476;248;27434;-66
2024/01/06 05:55:22;;;;;;;10.82;7.45;;;3.90;99.90;;;;;;478445;248;27434;-67
2024/01/06 05:57:23;;;;;;;7.95;6.25;;;3.90;99.90;;;;;;478461;248;27962;-66
2024/01/06 05:59:24;;;;;;;11.88;6.35;;;3.90;99.90;;;;;;478460;247;28012;-66
2024/01/06 06:01:26;;;;;;;13.20;6.75;;;4.00;99.90;;;;;;478293;248;27977;-65
2024/01/06 06:03:27;;;;;;;8.10;6.15;;;4.00;99.90;;;;;;478468;248;27474;-66
2024/01/06 06:05:28;;;;;;;15.20;7.57;;;4.00;99.90;;;;;;478446;248;27500;-66
2024/01/06 06:07:29;;;;;;;9.85;6.10;;;4.00;99.90;;;;;;478465;248;27419;-65
2024/01/06 06:09:31;;;;;;;10.95;6.12;;;4.00;99.90;;;;;;478475;248;27430;-66
2024/01/06 06:11:32;;;;;;;11.63;7.03;;;4.00;99.90;;;;;;478466;247;27415;-65
2024/01/06 06:13:33;;;;;;;8.98;6.47;;;4.00;99.90;;;;;;478467;248;27541;-66
2024/01/06 06:15:34;;;;;;;12.25;6.95;;;4.00;99.90;;;;;;478438;248;27881;-66
2024/01/06 06:17:36;;;;;;;11.52;7.57;;;4.00;99.90;;;;;;478464;248;27901;-65
2024/01/06 06:19:37;;;;;;;8.45;6.32;;;4.00;99.90;;;;;;478468;248;27423;-66
2024/01/06 06:21:38;;;;;;;13.30;7.37;;;4.00;99.90;;;;;;478467;248;27426;-66
2024/01/06 06:23:39;;;;;;;11.40;7.12;;;4.10;99.90;;;;;;478446;247;27486;-66
2024/01/06 06:25:41;;;;;;;11.50;7.15;;;4.00;99.90;;;;;;478446;248;27435;-66
2024/01/06 06:27:42;;;;;;;11.93;8.10;;;4.00;99.90;;;;;;478458;248;27415;-65
2024/01/06 06:29:43;;;;;;;13.77;7.65;;;4.00;99.90;;;;;;478471;248;27885;-65
2024/01/06 06:31:44;;;;;;;12.30;7.62;;;4.00;99.90;;;;;;478440;248;27942;-67
2024/01/06 06:33:46;;;;;;;12.85;8.45;;;4.00;99.90;;;;;;478332;248;27971;-66
2024/01/06 06:35:47;;;;;;;13.07;7.12;;;4.00;99.90;;;;;;478474;248;27411;-65
2024/01/06 06:37:49;;;;;;;12.77;7.95;;;4.00;99.90;;;;;;478444;246;27419;-65
2024/01/06 06:39:49;;;;;;;14.15;8.73;;;4.00;99.90;;;;;;478462;248;27419;-65
2024/01/06 06:41:51;;;;;;;15.15;7.45;;;4.00;99.90;;;;;;478457;248;27498;-65
2024/01/06 06:43:52;;;;;;;14.48;9.07;;;4.10;99.90;;;;;;478437;248;27513;-65
2024/01/06 06:45:55;;;;;;;12.02;7.57;;;4.10;99.90;;;;;;478466;248;27907;-65
2024/01/06 06:47:54;;;;;;;18.87;8.60;;;4.10;99.90;;;;;;478384;248;28004;-65
2024/01/06 06:49:56;;;;;;;13.23;8.80;;;4.00;99.90;;;;;;478456;248;27532;-66
2024/01/06 06:51:57;;;;;;;15.70;7.90;;;4.00;99.90;;;;;;478450;248;27395;-66
2024/01/06 06:53:58;;;;;;;12.30;8.15;;;4.00;99.90;;;;;;478431;248;27445;-66
2024/01/06 06:55:59;;;;;;;13.13;8.68;;;4.00;99.90;;;;;;478462;248;27423;-66
2024/01/06 06:58:01;;;;;;;15.40;8.38;;;4.00;99.90;;;;;;478454;247;27510;-66
2024/01/06 07:00:02;;;;;;;11.45;8.15;;;4.10;99.90;;;;;;478456;248;27414;-65
2024/01/06 07:02:03;;;;;;;15.32;9.05;;;4.10;99.90;;;;;;478462;248;27891;-66
2024/01/06 07:04:05;;;;;;;16.40;10.40;;;4.00;99.90;;;;;;478445;248;28333;-66
2024/01/06 07:06:06;;;;;;;20.02;10.25;;;3.90;99.90;;;;;;478469;248;27430;-65
2024/01/06 07:08:07;;;;;;;16.90;9.60;;;3.90;99.90;;;;;;478452;248;27431;-66
2024/01/06 07:10:08;;;;;;;14.10;9.18;;;3.90;99.90;;;;;;478439;248;27418;-66
2024/01/06 07:12:10;;;;;;;18.23;9.10;;;4.00;99.90;;;;;;478435;248;27499;-65
2024/01/06 07:14:11;;;;;;;14.15;8.90;;;4.00;99.90;;;;;;478426;248;27427;-65
2024/01/06 07:16:12;;;;;;;18.80;9.70;;;4.00;99.90;;;;;;478368;248;27902;-66
2024/01/06 07:18:13;;;;;;;12.77;8.95;;;4.00;99.90;;;;;;478462;248;27891;-66
2024/01/06 07:20:15;;;;;;;19.77;10.30;;;4.00;99.90;;;;;;478463;248;27415;-66
2024/01/06 07:22:19;;;;;;;18.55;10.93;;;4.00;99.90;;;;;;478459;248;27439;-66
2024/01/06 07:24:20;;;;;;;16.60;9.90;;;4.00;99.90;;;;;;478423;248;27907;-65
2024/01/06 07:26:21;;;;;;;18.25;10.48;;;4.00;99.90;;;;;;478456;248;27887;-66
2024/01/06 07:28:23;;;;;;;16.00;10.00;;;4.00;99.90;;;;;;478463;248;27394;-66
2024/01/06 07:30:24;;;;;;;20.73;11.02;;;4.00;99.90;;;;;;478463;248;27415;-66
2024/01/06 07:32:25;;;;;;;15.50;9.77;;;4.00;99.90;;;;;;478433;248;27403;-65
2024/01/06 07:34:26;;;;;;;13.88;9.73;;;4.00;99.90;;;;;;478425;248;27414;-65
2024/01/06 07:36:28;;;;;;;13.10;9.63;;;4.00;99.90;;;;;;478446;248;27427;-66
2024/01/06 07:38:30;;;;;;;14.73;8.75;;;4.00;99.90;;;;;;478454;248;27402;-66
2024/01/06 07:40:30;;;;;;;13.18;9.23;;;4.00;99.90;;;;;;478376;248;27907;-66
2024/01/06 07:42:32;;;;;;;13.62;9.07;;;4.00;99.90;;;;;;478442;248;27980;-66
2024/01/06 07:44:33;;;;;;;14.75;9.93;;;4.00;99.90;;;;;;478413;248;27853;-65
2024/01/06 07:46:36;;;;;;;15.15;9.23;;;4.00;99.90;;;;;;478454;248;27495;-66
2024/01/06 07:48:35;;;;;;;16.08;9.35;;;4.00;99.90;;;;;;478351;248;27530;-66
2024/01/06 07:50:37;;;;;;;18.85;10.75;;;4.10;99.90;;;;;;478435;248;27522;-66
2024/01/06 07:52:38;;;;;;;17.40;10.68;;;4.10;99.90;;;;;;478441;248;27394;-66
2024/01/06 07:54:39;;;;;;;13.32;9.73;;;4.10;99.90;;;;;;478419;248;27415;-65
2024/01/06 07:56:41;;;;;;;12.25;9.02;;;4.10;99.90;;;;;;478423;248;27873;-65
2024/01/06 07:58:42;;;;;;;13.27;10.05;;;4.10;99.90;;;;;;478447;248;27898;-67
2024/01/06 08:00:43;;;;;;;18.30;11.15;;;4.10;99.90;;;;;;478457;247;27403;-66
2024/01/06 08:02:44;;;;;;;15.45;10.57;;;4.10;99.90;;;;;;478443;248;27418;-66
2024/01/06 08:04:45;;;;;;;22.37;10.60;;;4.00;99.90;;;;;;478432;248;27503;-66
2024/01/06 08:06:47;;;;;;;14.73;10.30;;;4.10;99.90;;;;;;478452;248;27407;-65
2024/01/06 08:08:48;;;;;;;18.48;9.95;;;4.20;99.90;;;;;;478449;248;27430;-66
2024/01/06 08:10:49;;;;;;;15.40;10.02;;;4.10;99.90;;;;;;478447;248;27875;-66
2024/01/06 08:12:50;;;;;;;16.05;11.25;;;4.10;99.90;;;;;;478430;248;27874;-66
2024/01/06 08:14:52;;;;;;;14.40;9.07;;;4.10;99.90;;;;;;478327;248;27410;-67
2024/01/06 08:16:53;;;;;;;14.50;9.88;;;4.20;99.90;;;;;;478430;248;27498;-65
2024/01/06 08:18:54;;;;;;;12.23;9.43;;;4.20;99.90;;;;;;478461;248;27415;-66
2024/01/06 08:20:56;;;;;;;16.23;10.90;;;4.20;99.90;;;;;;478440;248;27435;-65
2024/01/06 08:22:57;;;;;;;16.42;9.55;;;4.20;99.90;;;;;;478456;248;27431;-66
2024/01/06 08:24:58;;;;;;;18.85;10.68;;;4.30;99.90;;;;;;478422;248;27922;-66
2024/01/06 08:26:59;;;;;;;14.57;9.38;;;4.30;99.90;;;;;;478452;248;27977;-65
2024/01/06 08:29:01;;;;;;;15.07;9.18;;;4.30;99.90;;;;;;478442;248;27482;-66
2024/01/06 08:31:02;;;;;;;15.63;9.50;;;4.30;99.90;;;;;;478445;248;27517;-66
2024/01/06 08:33:03;;;;;;;18.27;10.65;;;4.30;99.90;;;;;;478443;248;27400;-66
2024/01/06 08:35:04;;;;;;;18.92;11.65;;;4.30;99.90;;;;;;478424;248;27411;-67
2024/01/06 08:37:06;;;;;;;17.60;10.50;;;4.20;99.90;;;;;;478458;248;27510;-65
2024/01/06 08:39:08;;;;;;;19.67;11.40;;;4.30;99.90;;;;;;478456;248;27937;-66
2024/01/06 08:41:08;;;;;;;16.83;11.05;;;4.30;99.90;;;;;;478385;248;27426;-67
2024/01/06 08:43:09;;;;;;;24.63;11.85;;;4.30;99.90;;;;;;478452;248;27410;-66
2024/01/06 08:45:11;;;;;;;16.02;10.43;;;4.30;99.90;;;;;;478422;248;27423;-66
2024/01/06 08:47:12;;;;;;;24.60;12.52;;;4.30;99.90;;;;;;478451;248;27419;-66
2024/01/06 08:49:13;;;;;;;19.30;11.30;;;4.30;99.90;;;;;;478455;248;27455;-65
2024/01/06 08:51:15;;;;;;;16.23;10.15;;;4.30;99.90;;;;;;478446;248;27898;-66
2024/01/06 08:53:16;;;;;;;13.85;10.18;;;4.30;99.90;;;;;;478438;248;27407;-66
2024/01/06 08:55:17;;;;;;;20.27;11.52;;;4.40;99.90;;;;;;478422;246;27513;-66
2024/01/06 08:57:18;;;;;;;15.02;10.85;;;4.40;99.90;;;;;;478452;248;27521;-65
2024/01/06 08:59:20;;;;;;;15.55;10.18;;;4.40;99.90;;;;;;478453;248;27522;-65
2024/01/06 09:01:21;;;;;;;21.58;12.00;;;4.40;99.90;;;;;;478442;248;27522;-66
2024/01/06 09:03:25;;;;;;;17.45;11.23;;;4.40;99.90;;;;;;478460;248;27879;-66
2024/01/06 09:05:23;;;;;;;26.67;12.37;;;4.40;99.90;;;;;;478244;247;27503;-65
2024/01/06 09:07:25;;;;;;;18.27;10.50;;;4.40;99.90;;;;;;478448;248;27418;-67
2024/01/06 09:09:26;;;;;;;15.90;11.20;;;4.40;99.90;;;;;;478442;248;27443;-65
2024/01/06 09:11:27;;;;;;;25.73;13.35;;;4.40;99.90;;;;;;478448;248;27430;-65
2024/01/06 09:13:28;;;;;;;17.85;11.07;;;4.50;99.90;;;;;;478447;248;27390;-65
2024/01/06 09:15:30;;;;;;;18.55;11.45;;;4.50;99.90;;;;;;478413;248;27863;-66
2024/01/06 09:17:31;;;;;;;15.25;10.32;;;4.40;99.90;;;;;;478440;248;27403;-66
2024/01/06 09:19:32;;;;;;;19.73;12.07;;;4.50;99.90;;;;;;478395;248;27465;-65
2024/01/06 09:21:33;;;;;;;16.20;10.13;;;4.50;99.90;;;;;;478410;248;27407;-65
2024/01/06 09:23:35;;;;;;;19.87;11.77;;;4.50;99.90;;;;;;478411;248;27427;-66
2024/01/06 09:25:36;;;;;;;16.73;11.43;;;4.40;99.90;;;;;;478393;247;28000;-66
2024/01/06 09:27:37;;;;;;;24.12;12.88;;;4.50;99.90;;;;;;478446;248;28005;-66
2024/01/06 09:29:38;;;;;;;21.40;11.10;;;4.50;99.90;;;;;;478444;248;27406;-66
2024/01/06 09:31:40;;;;;;;18.20;10.38;;;4.50;99.90;;;;;;478440;248;27494;-65
2024/01/06 09:33:41;;;;;;;22.77;11.75;;;4.50;99.90;;;;;;478419;248;27411;-66
2024/01/06 09:35:43;;;;;;;16.85;10.73;;;4.50;99.90;;;;;;478454;248;27391;-66
2024/01/06 09:37:43;;;;;;;17.27;11.35;;;4.60;99.90;;;;;;478423;248;27899;-66
2024/01/06 09:39:45;;;;;;;19.40;11.70;;;4.60;99.90;;;;;;478462;248;27686;-66
2024/01/06 09:41:46;;;;;;;23.20;12.75;;;4.70;99.90;;;;;;482101;245;27543;-65
2024/01/06 09:43:47;;;;;;;18.40;12.37;;;4.60;99.90;;;;;;485180;245;27422;-66
2024/01/06 09:45:48;;;;;;;20.35;13.52;;;4.60;99.90;;;;;;485220;245;27414;-65
2024/01/06 09:47:50;;;;;;;15.65;11.02;;;4.60;99.90;;;;;;485213;245;27900;-66
2024/01/06 09:49:51;;;;;;;19.02;11.73;;;4.70;99.90;;;;;;485215;245;28189;-67
2024/01/06 09:51:52;;;;;;;17.70;11.48;;;4.70;99.90;;;;;;485209;245;27405;-65
2024/01/06 09:53:54;;;;;;;18.12;11.88;;;4.70;99.90;;;;;;485175;245;27406;-66
2024/01/06 09:55:55;;;;;;;15.65;10.55;;;4.70;99.90;;;;;;485224;245;27399;-66
2024/01/06 09:57:56;;;;;;;15.18;10.30;;;4.70;99.90;;;;;;485206;242;27543;-66
2024/01/06 09:59:57;;;;;;;14.10;9.82;;;4.70;99.90;;;;;;485221;245;27879;-66
2024/01/06 10:01:59;;;;;;;12.20;9.48;;;4.70;99.90;;;;;;485194;245;27403;-66
2024/01/06 10:04:00;;;;;;;11.95;9.75;;;4.80;99.90;;;;;;485181;245;27411;-66
2024/01/06 10:06:03;;;;;;;17.50;11.95;;;4.80;99.90;;;;;;485213;245;27481;-65
2024/01/06 10:08:04;;;;;;;17.48;11.25;;;4.70;99.90;;;;;;485089;245;27406;-65
2024/01/06 10:10:04;;;;;;;18.60;11.65;;;4.70;99.90;;;;;;485105;242;27414;-66
2024/01/06 10:12:05;;;;;;;19.42;11.52;;;4.70;99.90;;;;;;485199;245;27859;-66
2024/01/06 10:14:06;;;;;;;18.37;10.32;;;4.80;99.90;;;;;;485166;245;27482;-66
2024/01/06 10:16:07;;;;;;;18.92;12.45;;;4.80;99.90;;;;;;485220;245;27498;-66
2024/01/06 10:18:09;;;;;;;20.62;10.30;;;4.80;99.90;;;;;;485214;245;27418;-65
2024/01/06 10:20:10;;;;;;;16.40;10.98;;;4.80;99.90;;;;;;485217;245;27435;-66
2024/01/06 10:22:11;;;;;;;15.15;10.52;;;4.80;99.90;;;;;;485205;242;28349;-66
2024/01/06 10:24:13;;;;;;;14.50;11.02;;;4.90;99.90;;;;;;485188;245;27992;-66
2024/01/06 10:26:14;;;;;;;17.55;11.00;;;4.80;99.90;;;;;;485206;245;27431;-66
2024/01/06 10:28:15;;;;;;;13.50;9.95;;;4.90;99.90;;;;;;485234;245;27427;-65
2024/01/06 10:30:18;;;;;;;17.33;10.85;;;4.90;99.90;;;;;;485231;245;27427;-66
2024/01/06 10:32:18;;;;;;;12.80;9.38;;;5.00;99.90;;;;;;485152;242;28073;-66